sensor_id;sensor_type;location;lat;lon;timestamp;pressure;altitude;pressure_sealevel;temperature;humidity
32298;BME280;18782;48.984;8.548;2023-09-19T00:00:20;99481.34;;;17.54;100.00
32298;BME280;18782;48.984;8.548;2023-09-19T00:02:52;99482.25;;;17.51;100.00
32298;BME280;18782;48.984;8.548;2023-09-19T00:05:20;99481.34;;;17.54;100.00
32298;BME280;18782;48.984;8.548;2023-09-19T00:07:50;99484.81;;;17.56;100.00
32298;BME280;18782;48.984;8.548;2023-09-19T00:10:21;99484.84;;;17.53;100.00
32298;BME280;18782;48.984;8.548;2023-09-19T00:12:52;99490.09;;;17.46;100.00
32298;BME280;18782;48.984;8.548;2023-09-19T00:15:22;99498.75;;;17.48;100.00
32298;BME280;18782;48.984;8.548;2023-09-19T00:17:51;99495.28;;;17.50;100.00
32298;BME280;18782;48.984;8.548;2023-09-19T00:20:19;99497.84;;;17.53;100.00
32298;BME280;18782;48.984;8.548;2023-09-19T00:22:49;99512.56;;;17.54;100.00
32298;BME280;18782;48.984;8.548;2023-09-19T00:25:18;99506.38;;;17.64;99.88
32298;BME280;18782;48.984;8.548;2023-09-19T00:27:46;99514.19;;;17.64;97.96
32298;BME280;18782;48.984;8.548;2023-09-19T00:30:19;99502.94;;;17.65;98.63
32298;BME280;18782;48.984;8.548;2023-09-19T00:32:49;99508.94;;;17.70;97.63
32298;BME280;18782;48.984;8.548;2023-09-19T00:35:21;99506.38;;;17.67;98.00
32298;BME280;18782;48.984;8.548;2023-09-19T00:37:50;99510.69;;;17.68;97.90
32298;BME280;18782;48.984;8.548;2023-09-19T00:40:18;99514.16;;;17.70;98.93
32298;BME280;18782;48.984;8.548;2023-09-19T00:42:48;99503.72;;;17.71;98.35
32298;BME280;18782;48.984;8.548;2023-09-19T00:45:18;99501.13;;;17.73;98.01
32298;BME280;18782;48.984;8.548;2023-09-19T00:47:48;99513.28;;;17.71;97.72
32298;BME280;18782;48.984;8.548;2023-09-19T00:50:17;99508.94;;;17.70;99.45
32298;BME280;18782;48.984;8.548;2023-09-19T00:52:46;99511.56;;;17.70;97.63
32298;BME280;18782;48.984;8.548;2023-09-19T00:55:16;99524.56;;;17.70;97.46
32298;BME280;18782;48.984;8.548;2023-09-19T00:57:46;99527.13;;;17.74;96.96
32298;BME280;18782;48.984;8.548;2023-09-19T01:00:16;99533.22;;;17.69;99.15
32298;BME280;18782;48.984;8.548;2023-09-19T01:02:48;99531.50;;;17.71;98.33
32298;BME280;18782;48.984;8.548;2023-09-19T01:05:16;99541.88;;;17.74;97.66
32298;BME280;18782;48.984;8.548;2023-09-19T01:07:45;99536.69;;;17.74;99.02
32298;BME280;18782;48.984;8.548;2023-09-19T01:10:17;99533.22;;;17.75;97.71
32298;BME280;18782;48.984;8.548;2023-09-19T01:12:54;99541.91;;;17.71;98.00
32298;BME280;18782;48.984;8.548;2023-09-19T01:15:31;99547.06;;;17.77;97.48
32298;BME280;18782;48.984;8.548;2023-09-19T01:18:08;99549.56;;;17.86;97.33
32298;BME280;18782;48.984;8.548;2023-09-19T01:20:45;99552.19;;;17.86;96.93
32298;BME280;18782;48.984;8.548;2023-09-19T01:23:25;99555.59;;;17.91;96.16
32298;BME280;18782;48.984;8.548;2023-09-19T01:26:24;99559.06;;;17.90;96.12
32298;BME280;18782;48.984;8.548;2023-09-19T01:29:12;99563.41;;;17.91;95.50
32298;BME280;18782;48.984;8.548;2023-09-19T01:31:49;99568.56;;;17.96;94.61
32298;BME280;18782;48.984;8.548;2023-09-19T01:34:20;99574.66;;;17.93;94.92
32298;BME280;18782;48.984;8.548;2023-09-19T01:36:48;99565.94;;;17.97;93.71
32298;BME280;18782;48.984;8.548;2023-09-19T01:39:15;99571.13;;;17.97;93.03
32298;BME280;18782;48.984;8.548;2023-09-19T01:41:55;99577.97;;;18.06;92.29
32298;BME280;18782;48.984;8.548;2023-09-19T01:44:34;99574.25;;;18.27;92.39
32298;BME280;18782;48.984;8.548;2023-09-19T01:47:22;99577.63;;;18.32;91.29
32298;BME280;18782;48.984;8.548;2023-09-19T01:49:55;99579.34;;;18.36;91.86
32298;BME280;18782;48.984;8.548;2023-09-19T01:52:30;99574.09;;;18.39;93.44
32298;BME280;18782;48.984;8.548;2023-09-19T01:55:05;99582.81;;;18.38;91.26
32298;BME280;18782;48.984;8.548;2023-09-19T01:57:39;99588.03;;;18.35;93.32
32298;BME280;18782;48.984;8.548;2023-09-19T02:00:10;99594.13;;;18.34;91.33
32298;BME280;18782;48.984;8.548;2023-09-19T02:02:43;99593.25;;;18.35;91.50
32298;BME280;18782;48.984;8.548;2023-09-19T02:05:11;99588.94;;;18.34;90.47
32298;BME280;18782;48.984;8.548;2023-09-19T02:07:39;99594.13;;;18.34;90.67
32298;BME280;18782;48.984;8.548;2023-09-19T02:10:07;99594.16;;;18.33;91.50
32298;BME280;18782;48.984;8.548;2023-09-19T02:12:38;99588.03;;;18.35;92.83
32298;BME280;18782;48.984;8.548;2023-09-19T02:15:07;99591.56;;;18.31;92.71
32298;BME280;18782;48.984;8.548;2023-09-19T02:17:35;99588.94;;;18.34;92.88
32298;BME280;18782;48.984;8.548;2023-09-19T02:20:07;99595.88;;;18.34;94.03
32298;BME280;18782;48.984;8.548;2023-09-19T02:22:36;99596.75;;;18.31;91.76
32298;BME280;18782;48.984;8.548;2023-09-19T02:25:06;99594.09;;;18.39;92.97
32298;BME280;18782;48.984;8.548;2023-09-19T02:27:35;99604.63;;;18.30;91.32
32298;BME280;18782;48.984;8.548;2023-09-19T02:30:04;99610.69;;;18.30;91.87
32298;BME280;18782;48.984;8.548;2023-09-19T02:32:33;99609.84;;;18.26;91.92
32298;BME280;18782;48.984;8.548;2023-09-19T02:35:06;99610.69;;;18.30;92.08
32298;BME280;18782;48.984;8.548;2023-09-19T02:37:34;99613.31;;;18.29;93.19
32298;BME280;18782;48.984;8.548;2023-09-19T02:40:04;99611.53;;;18.31;93.13
32298;BME280;18782;48.984;8.548;2023-09-19T02:42:37;99611.41;;;18.41;92.36
32298;BME280;18782;48.984;8.548;2023-09-19T02:45:06;99618.41;;;18.36;92.50
32298;BME280;18782;48.984;8.548;2023-09-19T02:47:35;99614.13;;;18.32;92.88
32298;BME280;18782;48.984;8.548;2023-09-19T02:50:03;99615.88;;;18.33;93.59
32298;BME280;18782;48.984;8.548;2023-09-19T02:52:33;99622.81;;;18.31;93.52
32298;BME280;18782;48.984;8.548;2023-09-19T02:55:01;99623.75;;;18.29;95.17
32298;BME280;18782;48.984;8.548;2023-09-19T02:57:30;99626.41;;;18.21;93.81
32298;BME280;18782;48.984;8.548;2023-09-19T02:59:59;99633.38;;;18.22;95.56
32298;BME280;18782;48.984;8.548;2023-09-19T03:02:28;99622.03;;;18.24;95.56
32298;BME280;18782;48.984;8.548;2023-09-19T03:04:59;99622.81;;;18.31;93.84
32298;BME280;18782;48.984;8.548;2023-09-19T03:07:27;99627.22;;;18.28;94.67
32298;BME280;18782;48.984;8.548;2023-09-19T03:09:57;99635.09;;;18.23;95.70
32298;BME280;18782;48.984;8.548;2023-09-19T03:12:25;99648.13;;;18.21;94.83
32298;BME280;18782;48.984;8.548;2023-09-19T03:14:52;99642.19;;;18.12;95.43
32298;BME280;18782;48.984;8.548;2023-09-19T03:17:21;99644.00;;;18.00;96.25
32298;BME280;18782;48.984;8.548;2023-09-19T03:19:49;99657.03;;;18.02;96.51
32298;BME280;18782;48.984;8.548;2023-09-19T03:26:42;99653.81;;;17.74;99.24
32298;BME280;18782;48.984;8.548;2023-09-19T03:29:12;99645.28;;;17.57;100.00
32298;BME280;18782;48.984;8.548;2023-09-19T03:31:40;99639.19;;;17.58;100.00
32298;BME280;18782;48.984;8.548;2023-09-19T03:34:08;99644.38;;;17.61;100.00
32298;BME280;18782;48.984;8.548;2023-09-19T03:36:36;99642.75;;;17.49;100.00
32298;BME280;18782;48.984;8.548;2023-09-19T03:39:04;99640.97;;;17.53;100.00
32298;BME280;18782;48.984;8.548;2023-09-19T03:41:32;99637.47;;;17.54;100.00
32298;BME280;18782;48.984;8.548;2023-09-19T03:44:04;99640.97;;;17.53;100.00
32298;BME280;18782;48.984;8.548;2023-09-19T03:46:33;99639.22;;;17.53;100.00
32298;BME280;18782;48.984;8.548;2023-09-19T03:49:02;99640.97;;;17.53;100.00
32298;BME280;18782;48.984;8.548;2023-09-19T03:51:29;99634.97;;;17.46;100.00
32298;BME280;18782;48.984;8.548;2023-09-19T03:53:57;99636.72;;;17.45;100.00
32298;BME280;18782;48.984;8.548;2023-09-19T03:56:26;99628.06;;;17.40;100.00
32298;BME280;18782;48.984;8.548;2023-09-19T03:58:55;99630.63;;;17.43;100.00
32298;BME280;18782;48.984;8.548;2023-09-19T04:01:24;99631.56;;;17.39;100.00
32298;BME280;18782;48.984;8.548;2023-09-19T04:03:54;99630.69;;;17.37;100.00
32298;BME280;18782;48.984;8.548;2023-09-19T04:06:23;99636.72;;;17.42;100.00
32298;BME280;18782;48.984;8.548;2023-09-19T04:08:51;99638.44;;;17.43;100.00
32298;BME280;18782;48.984;8.548;2023-09-19T04:11:19;99639.38;;;17.39;100.00
32298;BME280;18782;48.984;8.548;2023-09-19T04:13:47;99641.16;;;17.30;100.00
32298;BME280;18782;48.984;8.548;2023-09-19T04:16:15;99644.63;;;17.27;100.00
32298;BME280;18782;48.984;8.548;2023-09-19T04:18:46;99646.38;;;17.30;100.00
32298;BME280;18782;48.984;8.548;2023-09-19T04:21:14;99661.13;;;17.29;100.00
32298;BME280;18782;48.984;8.548;2023-09-19T04:23:43;99655.88;;;17.32;100.00
32298;BME280;18782;48.984;8.548;2023-09-19T04:26:10;99664.59;;;17.30;100.00
32298;BME280;18782;48.984;8.548;2023-09-19T04:28:38;99669.81;;;17.25;100.00
32298;BME280;18782;48.984;8.548;2023-09-19T04:31:07;99673.22;;;17.32;100.00
32298;BME280;18782;48.984;8.548;2023-09-19T04:33:37;99681.06;;;17.30;100.00
32298;BME280;18782;48.984;8.548;2023-09-19T04:36:06;99681.09;;;17.24;100.00
32298;BME280;18782;48.984;8.548;2023-09-19T04:38:54;99687.97;;;17.31;100.00
32298;BME280;18782;48.984;8.548;2023-09-19T04:41:22;99693.22;;;17.28;100.00
32298;BME280;18782;48.984;8.548;2023-09-19T04:43:51;99695.81;;;17.25;100.00
32298;BME280;18782;48.984;8.548;2023-09-19T04:46:18;99693.22;;;17.25;100.00
32298;BME280;18782;48.984;8.548;2023-09-19T04:48:46;99690.63;;;17.25;100.00
32298;BME280;18782;48.984;8.548;2023-09-19T04:51:15;99686.25;;;17.33;100.00
32298;BME280;18782;48.984;8.548;2023-09-19T04:53:45;99704.34;;;17.45;100.00
32298;BME280;18782;48.984;8.548;2023-09-19T04:56:14;99714.72;;;17.55;100.00
32298;BME280;18782;48.984;8.548;2023-09-19T04:58:41;99714.75;;;17.50;100.00
32298;BME280;18782;48.984;8.548;2023-09-19T05:01:09;99713.88;;;17.50;100.00
32298;BME280;18782;48.984;8.548;2023-09-19T05:03:38;99701.81;;;17.39;100.00
32298;BME280;18782;48.984;8.548;2023-09-19T05:06:06;99713.06;;;17.41;98.87
32298;BME280;18782;48.984;8.548;2023-09-19T05:08:35;99715.72;;;17.35;99.42
32298;BME280;18782;48.984;8.548;2023-09-19T05:11:03;99720.16;;;17.19;99.87
32298;BME280;18782;48.984;8.548;2023-09-19T05:13:31;99726.16;;;17.29;100.00
32298;BME280;18782;48.984;8.548;2023-09-19T05:16:00;99721.00;;;17.17;100.00
32298;BME280;18782;48.984;8.548;2023-09-19T05:18:29;99736.59;;;17.20;100.00
32298;BME280;18782;48.984;8.548;2023-09-19T05:20:58;99734.88;;;17.19;100.00
32298;BME280;18782;48.984;8.548;2023-09-19T05:23:29;99734.03;;;17.18;100.00
32298;BME280;18782;48.984;8.548;2023-09-19T05:25:59;99744.38;;;17.25;100.00
32298;BME280;18782;48.984;8.548;2023-09-19T05:28:27;99743.56;;;17.15;100.00
32298;BME280;18782;48.984;8.548;2023-09-19T05:30:55;99753.94;;;17.21;100.00
32298;BME280;18782;48.984;8.548;2023-09-19T05:33:22;99753.88;;;17.32;100.00
32298;BME280;18782;48.984;8.548;2023-09-19T05:35:50;99766.00;;;17.36;100.00
32298;BME280;18782;48.984;8.548;2023-09-19T05:38:18;99770.34;;;17.34;100.00
32298;BME280;18782;48.984;8.548;2023-09-19T05:40:46;99765.22;;;17.21;100.00
32298;BME280;18782;48.984;8.548;2023-09-19T05:43:15;99766.13;;;17.10;100.00
32298;BME280;18782;48.984;8.548;2023-09-19T05:45:43;99769.63;;;17.09;100.00
32298;BME280;18782;48.984;8.548;2023-09-19T05:48:12;99770.53;;;16.99;100.00
32298;BME280;18782;48.984;8.548;2023-09-19T05:50:43;99774.81;;;17.06;100.00
32298;BME280;18782;48.984;8.548;2023-09-19T05:53:11;99781.72;;;17.16;100.00
32298;BME280;18782;48.984;8.548;2023-09-19T05:55:41;99785.19;;;17.15;100.00
32298;BME280;18782;48.984;8.548;2023-09-19T05:58:09;99783.50;;;17.00;100.00
32298;BME280;18782;48.984;8.548;2023-09-19T06:00:41;99786.94;;;17.10;100.00
32298;BME280;18782;48.984;8.548;2023-09-19T06:03:11;99788.66;;;17.11;100.00
32298;BME280;18782;48.984;8.548;2023-09-19T06:05:40;99781.72;;;17.19;100.00
32298;BME280;18782;48.984;8.548;2023-09-19T06:08:08;99789.47;;;17.28;100.00
32298;BME280;18782;48.984;8.548;2023-09-19T06:10:36;99797.19;;;17.40;100.00
32298;BME280;18782;48.984;8.548;2023-09-19T06:13:03;99805.94;;;17.22;97.93
32298;BME280;18782;48.984;8.548;2023-09-19T06:15:32;99801.63;;;17.25;98.17
32298;BME280;18782;48.984;8.548;2023-09-19T06:18:04;99807.69;;;17.25;98.75
32298;BME280;18782;48.984;8.548;2023-09-19T06:20:32;99807.72;;;17.16;97.40
32298;BME280;18782;48.984;8.548;2023-09-19T06:23:00;99807.72;;;17.16;99.57
32298;BME280;18782;48.984;8.548;2023-09-19T06:25:30;99801.66;;;17.14;98.30
32298;BME280;18782;48.984;8.548;2023-09-19T06:27:58;99799.03;;;17.17;97.29
32298;BME280;18782;48.984;8.548;2023-09-19T06:30:25;99806.88;;;17.14;97.42
32298;BME280;18782;48.984;8.548;2023-09-19T06:32:56;99799.09;;;17.08;97.95
32298;BME280;18782;48.984;8.548;2023-09-19T06:35:26;99807.75;;;17.10;97.46
32298;BME280;18782;48.984;8.548;2023-09-19T06:37:54;99822.50;;;17.06;98.15
32298;BME280;18782;48.984;8.548;2023-09-19T06:40:25;99817.28;;;17.11;98.29
32298;BME280;18782;48.984;8.548;2023-09-19T06:42:54;99827.69;;;17.12;96.52
32298;BME280;18782;48.984;8.548;2023-09-19T06:45:22;99838.13;;;17.03;96.83
32298;BME280;18782;48.984;8.548;2023-09-19T06:47:53;99823.44;;;16.91;96.84
32298;BME280;18782;48.984;8.548;2023-09-19T06:50:26;99826.88;;;16.97;97.40
32298;BME280;18782;48.984;8.548;2023-09-19T06:52:55;99832.91;;;17.03;97.47
32298;BME280;18782;48.984;8.548;2023-09-19T06:55:25;99830.31;;;17.08;97.04
32298;BME280;18782;48.984;8.548;2023-09-19T06:57:55;99840.69;;;17.14;99.33
32298;BME280;18782;48.984;8.548;2023-09-19T07:00:23;99838.91;;;17.28;100.00
32298;BME280;18782;48.984;8.548;2023-09-19T07:02:56;99842.34;;;17.33;96.33
32298;BME280;18782;48.984;8.548;2023-09-19T07:05:27;99846.75;;;17.11;95.71
32298;BME280;18782;48.984;8.548;2023-09-19T07:07:55;99854.56;;;17.07;96.41
32298;BME280;18782;48.984;8.548;2023-09-19T07:10:25;99855.44;;;17.09;96.25
32298;BME280;18782;48.984;8.548;2023-09-19T07:12:55;99858.91;;;17.06;96.58
32298;BME280;18782;48.984;8.548;2023-09-19T07:15:24;99857.13;;;17.16;96.30
32298;BME280;18782;48.984;8.548;2023-09-19T07:17:52;99851.09;;;17.14;97.55
32298;BME280;18782;48.984;8.548;2023-09-19T07:20:20;99858.88;;;17.23;96.59
32298;BME280;18782;48.984;8.548;2023-09-19T07:22:50;99860.56;;;17.33;95.85
32298;BME280;18782;48.984;8.548;2023-09-19T07:25:18;99857.06;;;17.39;96.38
32298;BME280;18782;48.984;8.548;2023-09-19T07:27:45;99868.16;;;17.73;96.54
32298;BME280;18782;48.984;8.548;2023-09-19T07:30:13;99861.16;;;17.87;94.56
32298;BME280;18782;48.984;8.548;2023-09-19T07:32:43;99868.09;;;17.85;92.44
32298;BME280;18782;48.984;8.548;2023-09-19T07:35:11;99866.41;;;17.81;91.44
32298;BME280;18782;48.984;8.548;2023-09-19T07:37:39;99874.97;;;17.98;93.19
32298;BME280;18782;48.984;8.548;2023-09-19T07:40:09;99878.34;;;18.13;91.43
32298;BME280;18782;48.984;8.548;2023-09-19T07:42:38;99873.19;;;18.07;91.92
32298;BME280;18782;48.984;8.548;2023-09-19T07:45:08;99878.31;;;18.11;92.02
32298;BME280;18782;48.984;8.548;2023-09-19T07:47:36;99878.53;;;17.82;92.06
32298;BME280;18782;48.984;8.548;2023-09-19T07:50:04;99887.06;;;18.06;91.45
32298;BME280;18782;48.984;8.548;2023-09-19T07:52:34;99882.75;;;18.00;90.07
32298;BME280;18782;48.984;8.548;2023-09-19T07:55:02;99881.88;;;17.99;90.86
32298;BME280;18782;48.984;8.548;2023-09-19T07:57:37;99887.03;;;18.09;90.90
32298;BME280;18782;48.984;8.548;2023-09-19T08:00:05;99880.06;;;18.14;90.55
32298;BME280;18782;48.984;8.548;2023-09-19T08:02:40;99884.41;;;18.13;90.03
32298;BME280;18782;48.984;8.548;2023-09-19T08:05:09;99894.69;;;18.30;89.90
32298;BME280;18782;48.984;8.548;2023-09-19T08:07:38;99900.72;;;18.35;89.81
32298;BME280;18782;48.984;8.548;2023-09-19T08:10:07;99908.56;;;18.32;88.44
32298;BME280;18782;48.984;8.548;2023-09-19T08:12:40;99892.94;;;18.32;89.28
32298;BME280;18782;48.984;8.548;2023-09-19T08:15:13;99908.44;;;18.50;89.89
32298;BME280;18782;48.984;8.548;2023-09-19T08:17:41;99911.06;;;18.47;89.47
32298;BME280;18782;48.984;8.548;2023-09-19T08:20:10;99903.22;;;18.50;88.79
32298;BME280;18782;48.984;8.548;2023-09-19T08:22:43;99902.22;;;18.70;87.73
32298;BME280;18782;48.984;8.548;2023-09-19T08:25:12;99907.31;;;18.79;86.06
32298;BME280;18782;48.984;8.548;2023-09-19T08:27:41;99920.41;;;18.76;86.46
32298;BME280;18782;48.984;8.548;2023-09-19T08:30:11;99900.44;;;18.75;82.61
32298;BME280;18782;48.984;8.548;2023-09-19T08:32:38;99913.44;;;18.76;82.49
32298;BME280;18782;48.984;8.548;2023-09-19T08:35:09;99902.94;;;18.84;82.31
32298;BME280;18782;48.984;8.548;2023-09-19T08:37:37;99909.72;;;19.02;81.20
32298;BME280;18782;48.984;8.548;2023-09-19T08:40:05;99914.06;;;19.01;79.81
32298;BME280;18782;48.984;8.548;2023-09-19T08:42:49;99908.84;;;19.00;77.80
32298;BME280;18782;48.984;8.548;2023-09-19T08:45:17;99916.53;;;19.17;78.39
32298;BME280;18782;48.984;8.548;2023-09-19T08:47:46;99904.03;;;19.42;78.61
32298;BME280;18782;48.984;8.548;2023-09-19T08:50:19;99919.75;;;19.39;78.20
32298;BME280;18782;48.984;8.548;2023-09-19T08:52:52;99913.50;;;19.50;78.20
32298;BME280;18782;48.984;8.548;2023-09-19T08:55:27;99918.69;;;19.52;76.41
32298;BME280;18782;48.984;8.548;2023-09-19T08:58:00;99942.94;;;19.65;75.31
32298;BME280;18782;48.984;8.548;2023-09-19T09:00:28;99921.31;;;19.53;73.67
32298;BME280;18782;48.984;8.548;2023-09-19T09:02:56;99907.44;;;19.47;75.12
32298;BME280;18782;48.984;8.548;2023-09-19T09:05:25;99913.59;;;19.44;73.73
32298;BME280;18782;48.984;8.548;2023-09-19T09:07:54;99923.34;;;19.25;74.15
32298;BME280;18782;48.984;8.548;2023-09-19T09:10:23;99929.34;;;19.35;74.05
32298;BME280;18782;48.984;8.548;2023-09-19T09:12:52;99913.59;;;19.41;75.87
32298;BME280;18782;48.984;8.548;2023-09-19T09:15:23;99918.59;;;19.63;76.45
32298;BME280;18782;48.984;8.548;2023-09-19T09:17:51;99918.66;;;19.60;73.41
32298;BME280;18782;48.984;8.548;2023-09-19T09:20:20;99918.59;;;19.63;74.82
32298;BME280;18782;48.984;8.548;2023-09-19T09:22:50;99916.84;;;19.65;71.03
32298;BME280;18782;48.984;8.548;2023-09-19T09:25:19;99916.84;;;19.65;72.00
32298;BME280;18782;48.984;8.548;2023-09-19T09:28:00;99917.78;;;19.59;71.14
32298;BME280;18782;48.984;8.548;2023-09-19T09:30:36;99918.75;;;19.49;70.78
32298;BME280;18782;48.984;8.548;2023-09-19T09:33:09;99928.41;;;19.42;69.39
32298;BME280;18782;48.984;8.548;2023-09-19T09:35:47;99918.69;;;19.53;70.93
32298;BME280;18782;48.984;8.548;2023-09-19T09:38:19;99929.09;;;19.58;69.62
32298;BME280;18782;48.984;8.548;2023-09-19T09:40:48;99925.38;;;19.76;68.20
32298;BME280;18782;48.984;8.548;2023-09-19T09:43:28;99919.88;;;19.97;66.70
32298;BME280;18782;48.984;8.548;2023-09-19T09:46:11;99912.69;;;20.12;66.52
32298;BME280;18782;48.984;8.548;2023-09-19T09:49:11;99921.09;;;20.32;64.78
32298;BME280;18782;48.984;8.548;2023-09-19T09:51:43;99922.78;;;20.36;63.71
32298;BME280;18782;48.984;8.548;2023-09-19T09:54:15;99912.13;;;20.50;63.66
32298;BME280;18782;48.984;8.548;2023-09-19T09:56:54;99908.34;;;20.68;63.61
32298;BME280;18782;48.984;8.548;2023-09-19T09:59:46;99907.19;;;20.84;63.31
32298;BME280;18782;48.984;8.548;2023-09-19T10:02:16;99911.00;;;21.13;64.44
32298;BME280;18782;48.984;8.548;2023-09-19T10:04:51;99919.63;;;21.18;61.72
32298;BME280;18782;48.984;8.548;2023-09-19T10:07:26;99910.50;;;20.94;62.76
32298;BME280;18782;48.984;8.548;2023-09-19T10:09:59;99927.09;;;20.91;61.72
32298;BME280;18782;48.984;8.548;2023-09-19T10:12:39;99920.53;;;20.69;61.26
32298;BME280;18782;48.984;8.548;2023-09-19T10:15:11;99918.97;;;20.58;61.57
32298;BME280;18782;48.984;8.548;2023-09-19T10:17:44;99928.09;;;20.30;62.90
32298;BME280;18782;48.984;8.548;2023-09-19T10:20:14;99920.03;;;20.47;63.79
32298;BME280;18782;48.984;8.548;2023-09-19T10:22:51;99924.34;;;20.49;60.87
32298;BME280;18782;48.984;8.548;2023-09-19T10:25:25;99925.91;;;20.59;60.30
32298;BME280;18782;48.984;8.548;2023-09-19T10:27:56;99915.47;;;20.56;61.66
32298;BME280;18782;48.984;8.548;2023-09-19T10:30:27;99913.13;;;20.92;60.72
32298;BME280;18782;48.984;8.548;2023-09-19T10:33:00;99917.84;;;21.20;60.21
32298;BME280;18782;48.984;8.548;2023-09-19T10:35:29;99921.03;;;21.37;59.52
32298;BME280;18782;48.984;8.548;2023-09-19T10:37:59;99908.25;;;21.63;59.67
32298;BME280;18782;48.984;8.548;2023-09-19T10:40:28;99926.25;;;21.37;58.10
32298;BME280;18782;48.984;8.548;2023-09-19T10:43:01;99928.78;;;21.40;57.86
32298;BME280;18782;48.984;8.548;2023-09-19T10:45:32;99921.03;;;20.89;59.25
32298;BME280;18782;48.984;8.548;2023-09-19T10:48:02;99910.94;;;21.16;58.02
32298;BME280;18782;48.984;8.548;2023-09-19T10:50:33;99917.50;;;21.38;57.98
32298;BME280;18782;48.984;8.548;2023-09-19T10:53:05;99917.38;;;21.46;58.46
32298;BME280;18782;48.984;8.548;2023-09-19T10:55:35;99922.44;;;21.94;57.84
32298;BME280;18782;48.984;8.548;2023-09-19T10:58:05;99915.78;;;21.79;55.85
32298;BME280;18782;48.984;8.548;2023-09-19T11:00:51;99923.63;;;21.79;54.78
32298;BME280;18782;48.984;8.548;2023-09-19T11:03:22;99909.06;;;21.67;55.72
32298;BME280;18782;48.984;8.548;2023-09-19T11:06:01;99906.63;;;21.97;55.53
32298;BME280;18782;48.984;8.548;2023-09-19T11:08:55;99905.03;;;22.30;54.73
32298;BME280;18782;48.984;8.548;2023-09-19T11:11:43;99893.78;;;22.25;55.13
32298;BME280;18782;48.984;8.548;2023-09-19T11:14:41;99904.66;;;22.06;55.06
32298;BME280;18782;48.984;8.548;2023-09-19T11:20:24;99908.47;;;21.93;56.89
32298;BME280;18782;48.984;8.548;2023-09-19T11:23:18;99892.34;;;22.11;54.93
32298;BME280;18782;48.984;8.548;2023-09-19T11:25:49;99897.31;;;21.85;55.36
32298;BME280;18782;48.984;8.548;2023-09-19T11:28:32;99893.44;;;21.61;56.87
32298;BME280;18782;48.984;8.548;2023-09-19T11:34:41;99903.78;;;21.69;57.12
32298;BME280;18782;48.984;8.548;2023-09-19T11:41:37;99893.63;;;21.92;57.60
32298;BME280;18782;48.984;8.548;2023-09-19T11:44:33;99888.53;;;21.86;55.44
32298;BME280;18782;48.984;8.548;2023-09-19T11:47:04;99893.09;;;22.17;55.74
32298;BME280;18782;48.984;8.548;2023-09-19T11:49:33;99889.16;;;22.36;54.14
32298;BME280;18782;48.984;8.548;2023-09-19T11:52:04;99888.03;;;22.79;54.16
32298;BME280;18782;48.984;8.548;2023-09-19T11:54:35;99887.41;;;23.34;51.11
32298;BME280;18782;48.984;8.548;2023-09-19T11:57:08;99883.47;;;23.20;51.14
32298;BME280;18782;48.984;8.548;2023-09-19T11:59:38;99868.00;;;23.69;51.24
32298;BME280;18782;48.984;8.548;2023-09-19T12:02:07;99858.06;;;24.34;50.67
32298;BME280;18782;48.984;8.548;2023-09-19T12:04:38;99860.75;;;24.59;48.85
32298;BME280;18782;48.984;8.548;2023-09-19T12:07:08;99864.84;;;25.17;49.78
32298;BME280;18782;48.984;8.548;2023-09-19T12:09:43;99856.50;;;25.06;46.77
32298;BME280;18782;48.984;8.548;2023-09-19T12:12:21;99855.31;;;25.37;45.25
32298;BME280;18782;48.984;8.548;2023-09-19T12:14:50;99860.09;;;25.72;46.09
32298;BME280;18782;48.984;8.548;2023-09-19T12:17:35;99851.16;;;26.00;44.33
32298;BME280;18782;48.984;8.548;2023-09-19T12:20:05;99850.72;;;25.65;43.54
32298;BME280;18782;48.984;8.548;2023-09-19T12:22:39;99846.16;;;25.47;43.89
32298;BME280;18782;48.984;8.548;2023-09-19T12:25:10;99851.91;;;25.35;44.36
32298;BME280;18782;48.984;8.548;2023-09-19T12:27:43;99834.03;;;25.43;44.52
32298;BME280;18782;48.984;8.548;2023-09-19T12:30:13;99842.78;;;25.89;44.03
32298;BME280;18782;48.984;8.548;2023-09-19T12:32:47;99825.56;;;25.35;44.49
32298;BME280;18782;48.984;8.548;2023-09-19T12:35:27;99829.38;;;25.95;44.04
32298;BME280;18782;48.984;8.548;2023-09-19T12:37:55;99818.84;;;26.36;43.17
32298;BME280;18782;48.984;8.548;2023-09-19T12:40:24;99817.56;;;26.87;42.51
32298;BME280;18782;48.984;8.548;2023-09-19T12:42:57;99811.78;;;26.58;43.72
32298;BME280;18782;48.984;8.548;2023-09-19T12:45:27;99809.88;;;27.01;42.71
32298;BME280;18782;48.984;8.548;2023-09-19T12:48:23;99828.63;;;26.34;42.55
32298;BME280;18782;48.984;8.548;2023-09-19T12:51:02;99813.34;;;26.62;41.58
32298;BME280;18782;48.984;8.548;2023-09-19T12:53:33;99813.72;;;26.94;41.33
32298;BME280;18782;48.984;8.548;2023-09-19T12:56:07;99806.63;;;27.34;40.67
32298;BME280;18782;48.984;8.548;2023-09-19T12:58:49;99808.91;;;27.22;40.83
32298;BME280;18782;48.984;8.548;2023-09-19T13:01:17;99799.81;;;27.66;40.89
32298;BME280;18782;48.984;8.548;2023-09-19T13:03:45;99794.75;;;27.80;39.12
32298;BME280;18782;48.984;8.548;2023-09-19T13:06:13;99804.94;;;27.33;39.51
32298;BME280;18782;48.984;8.548;2023-09-19T13:08:43;99804.28;;;27.46;39.89
32298;BME280;18782;48.984;8.548;2023-09-19T13:11:17;99793.34;;;27.54;39.14
32298;BME280;18782;48.984;8.548;2023-09-19T13:13:49;99805.28;;;27.99;37.96
32298;BME280;18782;48.984;8.548;2023-09-19T13:16:21;99798.84;;;28.56;37.51
32298;BME280;18782;48.984;8.548;2023-09-19T13:18:52;99792.09;;;28.33;37.85
32298;BME280;18782;48.984;8.548;2023-09-19T13:21:28;99787.91;;;28.80;36.92
32298;BME280;18782;48.984;8.548;2023-09-19T13:24:18;99808.16;;;28.81;36.74
32298;BME280;18782;48.984;8.548;2023-09-19T13:26:45;99789.94;;;28.75;35.90
32298;BME280;18782;48.984;8.548;2023-09-19T13:29:15;99778.69;;;29.52;33.74
32298;BME280;18782;48.984;8.548;2023-09-19T13:31:46;99787.13;;;29.11;34.82
32298;BME280;18782;48.984;8.548;2023-09-19T13:34:14;99776.03;;;29.20;35.08